sensor_id;sensor_type;location;lat;lon;timestamp;P1;durP1;ratioP1;P2;durP2;ratioP2
24335;SDS011;33098;52.400;16.880;2023-07-13T00:01:49;1.30;;;1.20;;
24335;SDS011;33098;52.400;16.880;2023-07-13T00:04:18;3.30;;;1.50;;
24335;SDS011;33098;52.400;16.880;2023-07-13T00:06:49;3.50;;;1.30;;
24335;SDS011;33098;52.400;16.880;2023-07-13T00:09:17;1.40;;;1.20;;
24335;SDS011;33098;52.400;16.880;2023-07-13T00:11:44;2.30;;;1.60;;
24335;SDS011;33098;52.400;16.880;2023-07-13T00:14:14;1.50;;;1.40;;
24335;SDS011;33098;52.400;16.880;2023-07-13T00:16:42;1.90;;;1.40;;
24335;SDS011;33098;52.400;16.880;2023-07-13T00:19:12;1.90;;;1.60;;
24335;SDS011;33098;52.400;16.880;2023-07-13T00:21:40;3.60;;;1.60;;
24335;SDS011;33098;52.400;16.880;2023-07-13T00:24:08;2.10;;;1.60;;
24335;SDS011;33098;52.400;16.880;2023-07-13T00:26:41;3.50;;;1.50;;
24335;SDS011;33098;52.400;16.880;2023-07-13T00:31:38;1.90;;;1.40;;
24335;SDS011;33098;52.400;16.880;2023-07-13T00:34:06;2.40;;;1.50;;
24335;SDS011;33098;52.400;16.880;2023-07-13T00:36:32;2.30;;;1.40;;
24335;SDS011;33098;52.400;16.880;2023-07-13T00:38:59;3.60;;;1.60;;
24335;SDS011;33098;52.400;16.880;2023-07-13T00:41:28;1.90;;;1.70;;
24335;SDS011;33098;52.400;16.880;2023-07-13T00:43:55;2.90;;;1.80;;
24335;SDS011;33098;52.400;16.880;2023-07-13T00:48:48;1.60;;;1.40;;
24335;SDS011;33098;52.400;16.880;2023-07-13T00:51:21;3.60;;;1.90;;
24335;SDS011;33098;52.400;16.880;2023-07-13T00:53:56;3.60;;;1.80;;
24335;SDS011;33098;52.400;16.880;2023-07-13T00:56:30;3.70;;;2.00;;
24335;SDS011;33098;52.400;16.880;2023-07-13T00:59:00;5.50;;;3.00;;
24335;SDS011;33098;52.400;16.880;2023-07-13T01:01:31;2.60;;;2.30;;
24335;SDS011;33098;52.400;16.880;2023-07-13T01:03:58;2.80;;;2.00;;
24335;SDS011;33098;52.400;16.880;2023-07-13T01:06:25;2.70;;;1.60;;
24335;SDS011;33098;52.400;16.880;2023-07-13T01:08:52;3.00;;;1.80;;
24335;SDS011;33098;52.400;16.880;2023-07-13T01:11:20;2.70;;;1.60;;
24335;SDS011;33098;52.400;16.880;2023-07-13T01:13:48;4.30;;;1.80;;
24335;SDS011;33098;52.400;16.880;2023-07-13T01:16:34;2.80;;;1.50;;
24335;SDS011;33098;52.400;16.880;2023-07-13T01:19:09;2.00;;;1.60;;
24335;SDS011;33098;52.400;16.880;2023-07-13T01:21:46;2.90;;;1.70;;
24335;SDS011;33098;52.400;16.880;2023-07-13T01:24:16;1.70;;;1.30;;
24335;SDS011;33098;52.400;16.880;2023-07-13T01:26:46;1.90;;;1.60;;
24335;SDS011;33098;52.400;16.880;2023-07-13T01:29:18;2.70;;;1.40;;
24335;SDS011;33098;52.400;16.880;2023-07-13T01:31:45;3.30;;;1.50;;
24335;SDS011;33098;52.400;16.880;2023-07-13T01:34:11;3.60;;;1.50;;
24335;SDS011;33098;52.400;16.880;2023-07-13T01:36:39;3.00;;;1.50;;
24335;SDS011;33098;52.400;16.880;2023-07-13T01:39:06;2.60;;;1.60;;
24335;SDS011;33098;52.400;16.880;2023-07-13T01:41:32;2.30;;;1.50;;
24335;SDS011;33098;52.400;16.880;2023-07-13T01:43:59;2.80;;;1.80;;
24335;SDS011;33098;52.400;16.880;2023-07-13T01:46:25;3.20;;;1.60;;
24335;SDS011;33098;52.400;16.880;2023-07-13T01:48:52;2.40;;;1.80;;
24335;SDS011;33098;52.400;16.880;2023-07-13T01:51:19;1.70;;;1.60;;
24335;SDS011;33098;52.400;16.880;2023-07-13T01:53:48;5.20;;;1.60;;
24335;SDS011;33098;52.400;16.880;2023-07-13T01:56:16;2.70;;;1.60;;
24335;SDS011;33098;52.400;16.880;2023-07-13T01:58:44;2.10;;;1.60;;
24335;SDS011;33098;52.400;16.880;2023-07-13T02:01:12;1.60;;;1.50;;
24335;SDS011;33098;52.400;16.880;2023-07-13T02:03:38;2.30;;;1.50;;
24335;SDS011;33098;52.400;16.880;2023-07-13T02:06:05;3.20;;;1.70;;
24335;SDS011;33098;52.400;16.880;2023-07-13T02:08:32;1.90;;;1.60;;
24335;SDS011;33098;52.400;16.880;2023-07-13T02:10:59;2.00;;;1.50;;
24335;SDS011;33098;52.400;16.880;2023-07-13T02:13:29;3.40;;;1.60;;
24335;SDS011;33098;52.400;16.880;2023-07-13T02:15:56;3.70;;;1.60;;
24335;SDS011;33098;52.400;16.880;2023-07-13T02:18:23;1.70;;;1.60;;
24335;SDS011;33098;52.400;16.880;2023-07-13T02:20:49;2.70;;;1.50;;
24335;SDS011;33098;52.400;16.880;2023-07-13T02:23:16;2.80;;;1.50;;
24335;SDS011;33098;52.400;16.880;2023-07-13T02:25:43;2.90;;;1.60;;
24335;SDS011;33098;52.400;16.880;2023-07-13T02:28:09;2.30;;;1.70;;
24335;SDS011;33098;52.400;16.880;2023-07-13T02:30:36;3.30;;;1.70;;
24335;SDS011;33098;52.400;16.880;2023-07-13T02:33:06;2.80;;;1.60;;
24335;SDS011;33098;52.400;16.880;2023-07-13T02:35:35;2.20;;;1.90;;
24335;SDS011;33098;52.400;16.880;2023-07-13T02:38:02;3.80;;;1.80;;
24335;SDS011;33098;52.400;16.880;2023-07-13T02:40:31;2.20;;;1.60;;
24335;SDS011;33098;52.400;16.880;2023-07-13T02:43:02;3.50;;;1.70;;
24335;SDS011;33098;52.400;16.880;2023-07-13T02:45:31;2.50;;;2.30;;
24335;SDS011;33098;52.400;16.880;2023-07-13T02:47:58;2.40;;;1.80;;
24335;SDS011;33098;52.400;16.880;2023-07-13T02:50:25;2.20;;;1.50;;
24335;SDS011;33098;52.400;16.880;2023-07-13T02:52:51;2.90;;;2.10;;
24335;SDS011;33098;52.400;16.880;2023-07-13T02:55:18;5.00;;;1.60;;
24335;SDS011;33098;52.400;16.880;2023-07-13T02:57:45;2.20;;;2.00;;
24335;SDS011;33098;52.400;16.880;2023-07-13T03:00:13;2.80;;;1.70;;
24335;SDS011;33098;52.400;16.880;2023-07-13T03:02:40;2.40;;;1.60;;
24335;SDS011;33098;52.400;16.880;2023-07-13T03:05:07;4.00;;;2.20;;
24335;SDS011;33098;52.400;16.880;2023-07-13T03:10:04;3.50;;;2.20;;
24335;SDS011;33098;52.400;16.880;2023-07-13T03:12:38;3.90;;;2.00;;
24335;SDS011;33098;52.400;16.880;2023-07-13T03:15:07;5.60;;;2.30;;
24335;SDS011;33098;52.400;16.880;2023-07-13T03:17:35;2.60;;;2.10;;
24335;SDS011;33098;52.400;16.880;2023-07-13T03:20:02;2.80;;;2.10;;
24335;SDS011;33098;52.400;16.880;2023-07-13T03:22:30;4.80;;;2.70;;
24335;SDS011;33098;52.400;16.880;2023-07-13T03:24:59;3.50;;;2.30;;
24335;SDS011;33098;52.400;16.880;2023-07-13T03:27:27;2.70;;;2.00;;
24335;SDS011;33098;52.400;16.880;2023-07-13T03:29:54;4.00;;;2.50;;
24335;SDS011;33098;52.400;16.880;2023-07-13T03:32:20;3.30;;;2.20;;
24335;SDS011;33098;52.400;16.880;2023-07-13T03:34:47;3.00;;;2.40;;
24335;SDS011;33098;52.400;16.880;2023-07-13T03:37:17;3.00;;;2.60;;
24335;SDS011;33098;52.400;16.880;2023-07-13T03:39:44;4.00;;;2.50;;
24335;SDS011;33098;52.400;16.880;2023-07-13T03:42:11;5.50;;;2.40;;
24335;SDS011;33098;52.400;16.880;2023-07-13T03:44:39;4.70;;;2.80;;
24335;SDS011;33098;52.400;16.880;2023-07-13T03:47:09;4.90;;;2.50;;
24335;SDS011;33098;52.400;16.880;2023-07-13T03:49:35;2.90;;;2.60;;
24335;SDS011;33098;52.400;16.880;2023-07-13T03:52:03;3.70;;;2.60;;
24335;SDS011;33098;52.400;16.880;2023-07-13T03:54:30;3.10;;;2.60;;
24335;SDS011;33098;52.400;16.880;2023-07-13T03:56:57;4.50;;;2.80;;
24335;SDS011;33098;52.400;16.880;2023-07-13T03:59:24;3.10;;;2.70;;
24335;SDS011;33098;52.400;16.880;2023-07-13T04:01:51;3.70;;;3.00;;
24335;SDS011;33098;52.400;16.880;2023-07-13T04:04:18;4.10;;;2.90;;
24335;SDS011;33098;52.400;16.880;2023-07-13T04:06:44;4.60;;;3.00;;
24335;SDS011;33098;52.400;16.880;2023-07-13T04:09:12;5.50;;;3.00;;
24335;SDS011;33098;52.400;16.880;2023-07-13T04:11:38;4.20;;;2.80;;
24335;SDS011;33098;52.400;16.880;2023-07-13T04:14:06;4.30;;;2.80;;
24335;SDS011;33098;52.400;16.880;2023-07-13T04:16:34;3.30;;;2.60;;
24335;SDS011;33098;52.400;16.880;2023-07-13T04:19:01;3.70;;;2.60;;
24335;SDS011;33098;52.400;16.880;2023-07-13T04:21:30;5.30;;;3.10;;
24335;SDS011;33098;52.400;16.880;2023-07-13T04:23:57;4.20;;;2.50;;
24335;SDS011;33098;52.400;16.880;2023-07-13T04:26:24;3.70;;;2.80;;
24335;SDS011;33098;52.400;16.880;2023-07-13T04:28:51;6.20;;;3.00;;
24335;SDS011;33098;52.400;16.880;2023-07-13T04:31:18;6.30;;;3.20;;
24335;SDS011;33098;52.400;16.880;2023-07-13T04:33:45;3.30;;;2.90;;
24335;SDS011;33098;52.400;16.880;2023-07-13T04:36:12;3.60;;;3.20;;
24335;SDS011;33098;52.400;16.880;2023-07-13T04:38:40;3.60;;;2.60;;
24335;SDS011;33098;52.400;16.880;2023-07-13T04:41:08;6.20;;;3.30;;
24335;SDS011;33098;52.400;16.880;2023-07-13T04:43:35;4.30;;;3.10;;
24335;SDS011;33098;52.400;16.880;2023-07-13T04:46:06;8.40;;;3.20;;
24335;SDS011;33098;52.400;16.880;2023-07-13T04:48:37;5.50;;;3.70;;
24335;SDS011;33098;52.400;16.880;2023-07-13T04:51:03;7.10;;;3.40;;
24335;SDS011;33098;52.400;16.880;2023-07-13T04:53:30;4.70;;;3.50;;
24335;SDS011;33098;52.400;16.880;2023-07-13T04:55:58;5.10;;;3.80;;
24335;SDS011;33098;52.400;16.880;2023-07-13T04:58:28;5.20;;;3.60;;
24335;SDS011;33098;52.400;16.880;2023-07-13T05:01:05;5.50;;;3.90;;
24335;SDS011;33098;52.400;16.880;2023-07-13T05:03:32;4.50;;;3.80;;
24335;SDS011;33098;52.400;16.880;2023-07-13T05:06:02;4.90;;;4.10;;
24335;SDS011;33098;52.400;16.880;2023-07-13T05:08:30;6.00;;;3.90;;
24335;SDS011;33098;52.400;16.880;2023-07-13T05:10:59;5.40;;;4.10;;
24335;SDS011;33098;52.400;16.880;2023-07-13T05:13:26;5.20;;;4.40;;
24335;SDS011;33098;52.400;16.880;2023-07-13T05:16:03;6.10;;;3.90;;
24335;SDS011;33098;52.400;16.880;2023-07-13T05:18:32;5.00;;;4.00;;
24335;SDS011;33098;52.400;16.880;2023-07-13T05:21:00;6.80;;;4.60;;
24335;SDS011;33098;52.400;16.880;2023-07-13T05:23:28;6.60;;;4.40;;
24335;SDS011;33098;52.400;16.880;2023-07-13T05:25:56;5.30;;;3.90;;
24335;SDS011;33098;52.400;16.880;2023-07-13T05:28:25;9.60;;;4.40;;
24335;SDS011;33098;52.400;16.880;2023-07-13T05:30:54;6.40;;;4.20;;
24335;SDS011;33098;52.400;16.880;2023-07-13T05:33:21;4.80;;;4.30;;
24335;SDS011;33098;52.400;16.880;2023-07-13T05:35:47;4.70;;;4.00;;
24335;SDS011;33098;52.400;16.880;2023-07-13T05:38:14;6.40;;;4.00;;
24335;SDS011;33098;52.400;16.880;2023-07-13T05:40:42;6.90;;;4.50;;
24335;SDS011;33098;52.400;16.880;2023-07-13T05:43:10;5.50;;;4.60;;
24335;SDS011;33098;52.400;16.880;2023-07-13T05:45:37;5.70;;;4.60;;
24335;SDS011;33098;52.400;16.880;2023-07-13T05:48:06;6.50;;;4.40;;
24335;SDS011;33098;52.400;16.880;2023-07-13T05:50:32;6.00;;;4.20;;
24335;SDS011;33098;52.400;16.880;2023-07-13T05:52:59;7.90;;;4.70;;
24335;SDS011;33098;52.400;16.880;2023-07-13T05:55:26;6.30;;;4.00;;
24335;SDS011;33098;52.400;16.880;2023-07-13T05:57:52;4.90;;;3.90;;
24335;SDS011;33098;52.400;16.880;2023-07-13T06:00:21;7.80;;;4.20;;
24335;SDS011;33098;52.400;16.880;2023-07-13T06:02:48;7.40;;;4.30;;
24335;SDS011;33098;52.400;16.880;2023-07-13T06:05:14;7.80;;;3.80;;
24335;SDS011;33098;52.400;16.880;2023-07-13T06:07:41;5.20;;;4.60;;
24335;SDS011;33098;52.400;16.880;2023-07-13T06:10:08;4.40;;;3.80;;
24335;SDS011;33098;52.400;16.880;2023-07-13T06:12:35;5.50;;;4.00;;
24335;SDS011;33098;52.400;16.880;2023-07-13T06:15:04;6.60;;;4.40;;
24335;SDS011;33098;52.400;16.880;2023-07-13T06:17:31;5.40;;;4.30;;
24335;SDS011;33098;52.400;16.880;2023-07-13T06:19:57;6.20;;;4.10;;
24335;SDS011;33098;52.400;16.880;2023-07-13T06:22:24;8.90;;;4.80;;
24335;SDS011;33098;52.400;16.880;2023-07-13T06:24:51;6.60;;;4.10;;
24335;SDS011;33098;52.400;16.880;2023-07-13T06:27:18;5.00;;;4.00;;
24335;SDS011;33098;52.400;16.880;2023-07-13T06:29:45;5.30;;;3.90;;
24335;SDS011;33098;52.400;16.880;2023-07-13T06:32:12;7.90;;;3.80;;
24335;SDS011;33098;52.400;16.880;2023-07-13T06:34:38;7.20;;;4.40;;
24335;SDS011;33098;52.400;16.880;2023-07-13T06:37:08;6.40;;;4.60;;
24335;SDS011;33098;52.400;16.880;2023-07-13T06:39:35;5.60;;;4.60;;
24335;SDS011;33098;52.400;16.880;2023-07-13T06:42:02;6.30;;;4.60;;
24335;SDS011;33098;52.400;16.880;2023-07-13T06:44:31;6.60;;;4.70;;
24335;SDS011;33098;52.400;16.880;2023-07-13T06:46:58;7.80;;;4.30;;
24335;SDS011;33098;52.400;16.880;2023-07-13T06:49:25;7.50;;;4.90;;
24335;SDS011;33098;52.400;16.880;2023-07-13T06:51:51;6.50;;;4.50;;
24335;SDS011;33098;52.400;16.880;2023-07-13T06:54:18;7.10;;;4.50;;
24335;SDS011;33098;52.400;16.880;2023-07-13T06:56:46;6.80;;;4.60;;
24335;SDS011;33098;52.400;16.880;2023-07-13T06:59:13;9.20;;;4.50;;
24335;SDS011;33098;52.400;16.880;2023-07-13T07:01:39;13.40;;;5.30;;
24335;SDS011;33098;52.400;16.880;2023-07-13T07:04:06;6.10;;;4.40;;
24335;SDS011;33098;52.400;16.880;2023-07-13T07:06:38;6.10;;;4.30;;
24335;SDS011;33098;52.400;16.880;2023-07-13T07:09:05;6.30;;;4.70;;
24335;SDS011;33098;52.400;16.880;2023-07-13T07:11:31;9.70;;;5.20;;
24335;SDS011;33098;52.400;16.880;2023-07-13T07:13:58;8.30;;;4.70;;
24335;SDS011;33098;52.400;16.880;2023-07-13T07:16:25;6.30;;;4.60;;
24335;SDS011;33098;52.400;16.880;2023-07-13T07:18:52;6.20;;;4.50;;
24335;SDS011;33098;52.400;16.880;2023-07-13T07:21:19;7.20;;;5.00;;
24335;SDS011;33098;52.400;16.880;2023-07-13T07:23:45;6.00;;;4.60;;
24335;SDS011;33098;52.400;16.880;2023-07-13T07:26:12;6.10;;;4.70;;
24335;SDS011;33098;52.400;16.880;2023-07-13T07:28:39;7.60;;;4.70;;
24335;SDS011;33098;52.400;16.880;2023-07-13T07:31:06;7.00;;;4.10;;
24335;SDS011;33098;52.400;16.880;2023-07-13T07:33:35;8.60;;;4.80;;
24335;SDS011;33098;52.400;16.880;2023-07-13T07:36:05;6.60;;;4.70;;
24335;SDS011;33098;52.400;16.880;2023-07-13T07:38:32;5.80;;;4.30;;
24335;SDS011;33098;52.400;16.880;2023-07-13T07:41:00;7.80;;;4.80;;
24335;SDS011;33098;52.400;16.880;2023-07-13T07:43:29;10.10;;;5.40;;
24335;SDS011;33098;52.400;16.880;2023-07-13T07:45:55;6.10;;;4.10;;
24335;SDS011;33098;52.400;16.880;2023-07-13T07:48:22;5.90;;;3.70;;
24335;SDS011;33098;52.400;16.880;2023-07-13T07:50:48;7.40;;;3.90;;
24335;SDS011;33098;52.400;16.880;2023-07-13T07:53:17;7.10;;;3.70;;
24335;SDS011;33098;52.400;16.880;2023-07-13T07:55:44;6.40;;;4.10;;
24335;SDS011;33098;52.400;16.880;2023-07-13T07:58:11;7.20;;;3.60;;
24335;SDS011;33098;52.400;16.880;2023-07-13T08:00:38;8.20;;;3.60;;
24335;SDS011;33098;52.400;16.880;2023-07-13T08:03:09;6.80;;;3.80;;
24335;SDS011;33098;52.400;16.880;2023-07-13T08:05:36;8.40;;;3.40;;
24335;SDS011;33098;52.400;16.880;2023-07-13T08:08:03;5.90;;;2.90;;
24335;SDS011;33098;52.400;16.880;2023-07-13T08:10:36;5.80;;;2.70;;
24335;SDS011;33098;52.400;16.880;2023-07-13T08:13:05;3.90;;;2.30;;
24335;SDS011;33098;52.400;16.880;2023-07-13T08:15:34;4.80;;;2.70;;
24335;SDS011;33098;52.400;16.880;2023-07-13T08:18:03;4.00;;;2.90;;
24335;SDS011;33098;52.400;16.880;2023-07-13T08:20:29;6.40;;;3.00;;
24335;SDS011;33098;52.400;16.880;2023-07-13T08:22:56;6.30;;;2.90;;
24335;SDS011;33098;52.400;16.880;2023-07-13T08:25:22;6.40;;;2.80;;
24335;SDS011;33098;52.400;16.880;2023-07-13T08:27:49;6.10;;;2.80;;
24335;SDS011;33098;52.400;16.880;2023-07-13T08:30:16;6.20;;;2.70;;
24335;SDS011;33098;52.400;16.880;2023-07-13T08:32:43;4.30;;;2.80;;
24335;SDS011;33098;52.400;16.880;2023-07-13T08:35:10;6.10;;;2.60;;
24335;SDS011;33098;52.400;16.880;2023-07-13T08:37:37;5.50;;;3.20;;
24335;SDS011;33098;52.400;16.880;2023-07-13T08:40:04;6.50;;;3.00;;
24335;SDS011;33098;52.400;16.880;2023-07-13T08:42:36;6.10;;;3.00;;
24335;SDS011;33098;52.400;16.880;2023-07-13T08:45:22;5.40;;;3.10;;
24335;SDS011;33098;52.400;16.880;2023-07-13T08:48:18;5.30;;;3.10;;
24335;SDS011;33098;52.400;16.880;2023-07-13T08:50:55;8.30;;;3.00;;
24335;SDS011;33098;52.400;16.880;2023-07-13T08:54:02;3.80;;;3.00;;
24335;SDS011;33098;52.400;16.880;2023-07-13T08:56:34;4.70;;;3.10;;
24335;SDS011;33098;52.400;16.880;2023-07-13T08:59:09;6.00;;;3.40;;
24335;SDS011;33098;52.400;16.880;2023-07-13T09:01:47;5.20;;;3.70;;
24335;SDS011;33098;52.400;16.880;2023-07-13T09:04:42;4.90;;;3.30;;
24335;SDS011;33098;52.400;16.880;2023-07-13T09:10:16;4.10;;;3.00;;
24335;SDS011;33098;52.400;16.880;2023-07-13T09:15:30;7.80;;;3.70;;
24335;SDS011;33098;52.400;16.880;2023-07-13T09:18:08;8.40;;;3.30;;
24335;SDS011;33098;52.400;16.880;2023-07-13T09:20:41;5.10;;;3.00;;
24335;SDS011;33098;52.400;16.880;2023-07-13T09:23:15;6.40;;;3.30;;
24335;SDS011;33098;52.400;16.880;2023-07-13T09:25:49;5.00;;;3.00;;
24335;SDS011;33098;52.400;16.880;2023-07-13T09:28:24;6.60;;;3.30;;
24335;SDS011;33098;52.400;16.880;2023-07-13T09:33:48;6.80;;;3.90;;
24335;SDS011;33098;52.400;16.880;2023-07-13T09:36:30;6.70;;;4.10;;
24335;SDS011;33098;52.400;16.880;2023-07-13T09:44:16;6.70;;;4.00;;
24335;SDS011;33098;52.400;16.880;2023-07-13T09:46:45;10.00;;;4.10;;
24335;SDS011;33098;52.400;16.880;2023-07-13T09:49:18;7.30;;;4.60;;
24335;SDS011;33098;52.400;16.880;2023-07-13T09:51:45;7.90;;;4.10;;
24335;SDS011;33098;52.400;16.880;2023-07-13T09:54:17;7.70;;;4.00;;
24335;SDS011;33098;52.400;16.880;2023-07-13T09:56:45;7.90;;;4.50;;
24335;SDS011;33098;52.400;16.880;2023-07-13T09:59:20;6.20;;;3.90;;
24335;SDS011;33098;52.400;16.880;2023-07-13T10:01:53;7.60;;;3.90;;
24335;SDS011;33098;52.400;16.880;2023-07-13T10:04:20;5.40;;;3.50;;
24335;SDS011;33098;52.400;16.880;2023-07-13T10:07:04;6.00;;;3.90;;
24335;SDS011;33098;52.400;16.880;2023-07-13T10:09:41;6.50;;;3.70;;
24335;SDS011;33098;52.400;16.880;2023-07-13T10:12:15;7.00;;;3.80;;
24335;SDS011;33098;52.400;16.880;2023-07-13T10:14:42;7.20;;;3.80;;
24335;SDS011;33098;52.400;16.880;2023-07-13T10:17:12;4.30;;;3.00;;
24335;SDS011;33098;52.400;16.880;2023-07-13T10:22:31;4.40;;;3.30;;
24335;SDS011;33098;52.400;16.880;2023-07-13T10:25:24;5.40;;;3.10;;
24335;SDS011;33098;52.400;16.880;2023-07-13T10:27:54;5.20;;;3.40;;
24335;SDS011;33098;52.400;16.880;2023-07-13T10:30:32;6.20;;;3.60;;
24335;SDS011;33098;52.400;16.880;2023-07-13T10:33:02;5.00;;;2.90;;
24335;SDS011;33098;52.400;16.880;2023-07-13T10:35:35;7.00;;;3.20;;
24335;SDS011;33098;52.400;16.880;2023-07-13T10:38:04;4.30;;;3.00;;
24335;SDS011;33098;52.400;16.880;2023-07-13T10:40:37;5.80;;;3.50;;
24335;SDS011;33098;52.400;16.880;2023-07-13T10:43:21;7.60;;;3.50;;
24335;SDS011;33098;52.400;16.880;2023-07-13T10:45:53;5.40;;;3.40;;
24335;SDS011;33098;52.400;16.880;2023-07-13T10:48:21;6.90;;;3.60;;
24335;SDS011;33098;52.400;16.880;2023-07-13T10:50:52;5.20;;;3.10;;
24335;SDS011;33098;52.400;16.880;2023-07-13T10:53:27;5.20;;;3.10;;
24335;SDS011;33098;52.400;16.880;2023-07-13T10:55:57;4.70;;;3.00;;
24335;SDS011;33098;52.400;16.880;2023-07-13T10:58:37;6.50;;;3.40;;
24335;SDS011;33098;52.400;16.880;2023-07-13T11:03:33;5.10;;;3.20;;
24335;SDS011;33098;52.400;16.880;2023-07-13T11:11:46;6.30;;;2.90;;
24335;SDS011;33098;52.400;16.880;2023-07-13T11:19:51;5.60;;;3.00;;
24335;SDS011;33098;52.400;16.880;2023-07-13T11:22:25;3.60;;;2.80;;
24335;SDS011;33098;52.400;16.880;2023-07-13T11:30:40;3.20;;;2.50;;
24335;SDS011;33098;52.400;16.880;2023-07-13T11:33:17;2.30;;;2.10;;
24335;SDS011;33098;52.400;16.880;2023-07-13T11:36:06;3.90;;;2.90;;
24335;SDS011;33098;52.400;16.880;2023-07-13T11:38:40;5.40;;;3.10;;
24335;SDS011;33098;52.400;16.880;2023-07-13T11:41:28;6.40;;;3.00;;
24335;SDS011;33098;52.400;16.880;2023-07-13T11:44:05;5.50;;;2.50;;
24335;SDS011;33098;52.400;16.880;2023-07-13T11:46:44;5.00;;;2.30;;
24335;SDS011;33098;52.400;16.880;2023-07-13T11:49:17;6.00;;;2.50;;
24335;SDS011;33098;52.400;16.880;2023-07-13T11:51:48;3.40;;;2.20;;
24335;SDS011;33098;52.400;16.880;2023-07-13T11:54:25;2.80;;;1.80;;
24335;SDS011;33098;52.400;16.880;2023-07-13T11:56:56;2.50;;;1.60;;
24335;SDS011;33098;52.400;16.880;2023-07-13T11:59:36;3.70;;;2.10;;
24335;SDS011;33098;52.400;16.880;2023-07-13T12:02:26;4.30;;;1.90;;
24335;SDS011;33098;52.400;16.880;2023-07-13T12:04:57;2.60;;;1.80;;
24335;SDS011;33098;52.400;16.880;2023-07-13T12:07:28;2.40;;;1.60;;
24335;SDS011;33098;52.400;16.880;2023-07-13T12:12:36;2.40;;;1.60;;
24335;SDS011;33098;52.400;16.880;2023-07-13T12:15:07;2.00;;;1.80;;
24335;SDS011;33098;52.400;16.880;2023-07-13T12:17:34;2.30;;;1.70;;
24335;SDS011;33098;52.400;16.880;2023-07-13T12:20:03;4.70;;;2.00;;
24335;SDS011;33098;52.400;16.880;2023-07-13T12:22:47;4.90;;;2.40;;
24335;SDS011;33098;52.400;16.880;2023-07-13T12:25:18;2.60;;;1.60;;
24335;SDS011;33098;52.400;16.880;2023-07-13T12:27:47;4.80;;;2.10;;
24335;SDS011;33098;52.400;16.880;2023-07-13T12:30:29;3.30;;;2.00;;
24335;SDS011;33098;52.400;16.880;2023-07-13T12:33:00;1.80;;;1.50;;
24335;SDS011;33098;52.400;16.880;2023-07-13T12:35:42;3.00;;;2.00;;
24335;SDS011;33098;52.400;16.880;2023-07-13T12:38:12;2.30;;;1.70;;
24335;SDS011;33098;52.400;16.880;2023-07-13T12:40:39;2.50;;;1.50;;
24335;SDS011;33098;52.400;16.880;2023-07-13T12:43:10;2.10;;;1.60;;
24335;SDS011;33098;52.400;16.880;2023-07-13T12:45:39;3.10;;;1.60;;
24335;SDS011;33098;52.400;16.880;2023-07-13T12:48:20;4.30;;;1.60;;
24335;SDS011;33098;52.400;16.880;2023-07-13T12:50:48;1.90;;;1.40;;
24335;SDS011;33098;52.400;16.880;2023-07-13T12:53:19;4.40;;;1.70;;
24335;SDS011;33098;52.400;16.880;2023-07-13T12:55:55;2.60;;;1.50;;
24335;SDS011;33098;52.400;16.880;2023-07-13T12:58:26;2.00;;;1.40;;
24335;SDS011;33098;52.400;16.880;2023-07-13T13:01:04;3.20;;;1.50;;
24335;SDS011;33098;52.400;16.880;2023-07-13T13:03:32;2.70;;;1.60;;
24335;SDS011;33098;52.400;16.880;2023-07-13T13:06:05;3.50;;;2.30;;
24335;SDS011;33098;52.400;16.880;2023-07-13T13:08:47;3.80;;;1.60;;
24335;SDS011;33098;52.400;16.880;2023-07-13T13:11:16;1.60;;;1.50;;
24335;SDS011;33098;52.400;16.880;2023-07-13T13:13:43;2.70;;;1.60;;
24335;SDS011;33098;52.400;16.880;2023-07-13T13:16:16;2.60;;;1.80;;
24335;SDS011;33098;52.400;16.880;2023-07-13T13:18:44;3.90;;;2.00;;
24335;SDS011;33098;52.400;16.880;2023-07-13T13:21:11;3.30;;;1.80;;
24335;SDS011;33098;52.400;16.880;2023-07-13T13:23:41;2.10;;;1.40;;
24335;SDS011;33098;52.400;16.880;2023-07-13T13:26:11;3.30;;;1.60;;
24335;SDS011;33098;52.400;16.880;2023-07-13T13:28:39;2.60;;;1.30;;
24335;SDS011;33098;52.400;16.880;2023-07-13T13:31:07;2.70;;;1.70;;
24335;SDS011;33098;52.400;16.880;2023-07-13T13:33:35;2.20;;;1.30;;
24335;SDS011;33098;52.400;16.880;2023-07-13T13:36:03;2.30;;;1.60;;
24335;SDS011;33098;52.400;16.880;2023-07-13T13:38:30;2.60;;;1.40;;
24335;SDS011;33098;52.400;16.880;2023-07-13T13:40:57;3.20;;;2.20;;
24335;SDS011;33098;52.400;16.880;2023-07-13T13:43:24;4.30;;;1.70;;
24335;SDS011;33098;52.400;16.880;2023-07-13T13:45:55;2.00;;;1.40;;
24335;SDS011;33098;52.400;16.880;2023-07-13T13:48:30;2.60;;;1.80;;
24335;SDS011;33098;52.400;16.880;2023-07-13T13:50:59;1.80;;;1.40;;
24335;SDS011;33098;52.400;16.880;2023-07-13T13:53:28;1.70;;;1.50;;
24335;SDS011;33098;52.400;16.880;2023-07-13T13:55:55;2.80;;;1.60;;
24335;SDS011;33098;52.400;16.880;2023-07-13T13:58:22;3.00;;;1.60;;
24335;SDS011;33098;52.400;16.880;2023-07-13T14:00:49;1.80;;;1.50;;
24335;SDS011;33098;52.400;16.880;2023-07-13T14:03:17;2.80;;;1.60;;
24335;SDS011;33098;52.400;16.880;2023-07-13T14:05:46;2.20;;;1.60;;
24335;SDS011;33098;52.400;16.880;2023-07-13T14:08:15;2.90;;;1.60;;
24335;SDS011;33098;52.400;16.880;2023-07-13T14:10:50;2.90;;;1.50;;
24335;SDS011;33098;52.400;16.880;2023-07-13T14:13:21;2.10;;;1.60;;
24335;SDS011;33098;52.400;16.880;2023-07-13T14:15:55;4.30;;;1.60;;
24335;SDS011;33098;52.400;16.880;2023-07-13T14:18:22;2.90;;;1.70;;
24335;SDS011;33098;52.400;16.880;2023-07-13T14:20:50;2.90;;;1.50;;
24335;SDS011;33098;52.400;16.880;2023-07-13T14:25:46;3.40;;;1.70;;
24335;SDS011;33098;52.400;16.880;2023-07-13T14:28:20;2.90;;;1.40;;
24335;SDS011;33098;52.400;16.880;2023-07-13T14:30:49;2.70;;;1.90;;
24335;SDS011;33098;52.400;16.880;2023-07-13T14:33:16;3.00;;;1.70;;
24335;SDS011;33098;52.400;16.880;2023-07-13T14:35:43;1.80;;;1.50;;
24335;SDS011;33098;52.400;16.880;2023-07-13T14:38:11;2.20;;;1.50;;
24335;SDS011;33098;52.400;16.880;2023-07-13T14:40:42;3.00;;;1.70;;
24335;SDS011;33098;52.400;16.880;2023-07-13T14:43:13;2.80;;;1.60;;
24335;SDS011;33098;52.400;16.880;2023-07-13T14:45:41;1.70;;;1.60;;
24335;SDS011;33098;52.400;16.880;2023-07-13T14:48:13;1.90;;;1.70;;
24335;SDS011;33098;52.400;16.880;2023-07-13T14:50:50;2.40;;;1.70;;
24335;SDS011;33098;52.400;16.880;2023-07-13T14:53:24;2.60;;;1.90;;
24335;SDS011;33098;52.400;16.880;2023-07-13T14:55:53;2.40;;;1.80;;
24335;SDS011;33098;52.400;16.880;2023-07-13T14:58:23;2.40;;;1.70;;
24335;SDS011;33098;52.400;16.880;2023-07-13T15:00:50;3.00;;;1.90;;
24335;SDS011;33098;52.400;16.880;2023-07-13T15:03:20;1.90;;;1.70;;
24335;SDS011;33098;52.400;16.880;2023-07-13T15:05:51;3.20;;;1.60;;
24335;SDS011;33098;52.400;16.880;2023-07-13T15:10:45;2.70;;;1.80;;
24335;SDS011;33098;52.400;16.880;2023-07-13T15:13:16;3.20;;;1.80;;
24335;SDS011;33098;52.400;16.880;2023-07-13T15:15:47;2.10;;;1.70;;
24335;SDS011;33098;52.400;16.880;2023-07-13T15:18:17;3.30;;;1.90;;
24335;SDS011;33098;52.400;16.880;2023-07-13T15:20:47;1.90;;;1.70;;
24335;SDS011;33098;52.400;16.880;2023-07-13T15:23:16;3.00;;;1.50;;
24335;SDS011;33098;52.400;16.880;2023-07-13T15:25:44;1.60;;;1.50;;
24335;SDS011;33098;52.400;16.880;2023-07-13T15:28:12;3.60;;;1.60;;
24335;SDS011;33098;52.400;16.880;2023-07-13T15:30:46;2.20;;;1.40;;
24335;SDS011;33098;52.400;16.880;2023-07-13T15:33:15;1.60;;;1.50;;
24335;SDS011;33098;52.400;16.880;2023-07-13T15:35:45;1.90;;;1.50;;
24335;SDS011;33098;52.400;16.880;2023-07-13T15:38:19;4.10;;;1.50;;
24335;SDS011;33098;52.400;16.880;2023-07-13T15:40:48;3.20;;;1.50;;